createdAt,value
2023-05-10T00:00:04.350Z,26.38
2023-05-10T00:01:04.388Z,26.38
2023-05-10T00:02:04.457Z,26.37
2023-05-10T00:03:04.444Z,26.38
2023-05-10T00:04:04.452Z,26.37
2023-05-10T00:05:04.446Z,26.36
2023-05-10T00:06:04.492Z,26.37
2023-05-10T00:07:04.584Z,26.37
2023-05-10T00:08:04.586Z,26.36
2023-05-10T00:09:04.619Z,26.36
2023-05-10T00:10:04.642Z,26.36
2023-05-10T00:11:04.699Z,26.35
2023-05-10T00:12:04.708Z,26.35
2023-05-10T00:13:04.742Z,26.36
2023-05-10T00:14:04.746Z,26.35
2023-05-10T00:15:04.832Z,26.35
2023-05-10T00:16:04.880Z,26.34
2023-05-10T00:17:04.860Z,26.35
2023-05-10T00:18:04.918Z,26.35
2023-05-10T00:19:04.903Z,26.35
2023-05-10T00:20:04.945Z,26.34
2023-05-10T00:21:05.034Z,26.34
2023-05-10T00:22:05.027Z,26.34
2023-05-10T00:23:05.125Z,26.33
2023-05-10T00:24:05.108Z,26.33
2023-05-10T00:25:05.148Z,26.33
2023-05-10T00:26:05.177Z,26.33
2023-05-10T00:27:05.212Z,26.33
2023-05-10T00:28:05.237Z,26.33
2023-05-10T00:29:05.286Z,26.32
2023-05-10T00:30:05.353Z,26.32
2023-05-10T00:31:05.364Z,26.32
2023-05-10T00:32:05.436Z,26.32
2023-05-10T00:33:05.517Z,26.31
2023-05-10T00:34:05.480Z,26.31
2023-05-10T00:35:05.526Z,26.31
2023-05-10T00:36:05.592Z,26.30
2023-05-10T00:37:05.566Z,26.31
2023-05-10T00:38:05.617Z,26.31
2023-05-10T00:39:05.665Z,26.31
2023-05-10T00:40:05.713Z,26.30
2023-05-10T00:41:05.771Z,26.30
2023-05-10T00:42:05.786Z,26.30
2023-05-10T00:43:05.862Z,26.30
2023-05-10T00:44:05.912Z,26.29
2023-05-10T00:45:05.904Z,26.30
2023-05-10T00:46:06.001Z,26.29
2023-05-10T00:47:06.004Z,26.30
2023-05-10T00:48:06.118Z,26.29
2023-05-10T00:49:06.099Z,26.30
2023-05-10T00:50:06.137Z,26.29
2023-05-10T00:51:06.183Z,26.29
2023-05-10T00:52:06.216Z,26.29
2023-05-10T00:53:06.219Z,26.29
2023-05-10T00:54:06.282Z,26.28
2023-05-10T00:55:06.363Z,26.28
2023-05-10T00:56:06.379Z,26.28
2023-05-10T00:57:06.409Z,26.29
2023-05-10T00:58:06.461Z,26.28
2023-05-10T00:59:06.472Z,26.26
2023-05-10T01:00:06.531Z,26.27
2023-05-10T01:01:06.670Z,26.26
2023-05-10T01:02:06.611Z,26.26
2023-05-10T01:03:06.725Z,26.25
2023-05-10T01:04:06.654Z,26.26
2023-05-10T01:05:06.752Z,26.26
2023-05-10T01:06:06.755Z,26.26
2023-05-10T01:07:06.832Z,26.26
2023-05-10T01:08:06.843Z,26.26
2023-05-10T01:09:06.959Z,26.26
2023-05-10T01:10:06.922Z,26.26
2023-05-10T01:11:06.973Z,26.26
2023-05-10T01:12:07.035Z,26.25
2023-05-10T01:13:07.019Z,26.26
2023-05-10T01:14:07.087Z,26.25
2023-05-10T01:15:07.103Z,26.25
2023-05-10T01:16:07.188Z,26.24
2023-05-10T01:17:07.216Z,26.24
2023-05-10T01:18:07.213Z,26.23
2023-05-10T01:19:07.260Z,26.24
2023-05-10T01:20:07.340Z,26.24
2023-05-10T01:21:07.398Z,26.23
2023-05-10T01:22:07.389Z,26.24
2023-05-10T01:23:07.459Z,26.23
2023-05-10T01:24:07.504Z,26.23
2023-05-10T01:25:07.506Z,26.22
2023-05-10T01:26:07.578Z,26.23
2023-05-10T01:27:07.622Z,26.22
2023-05-10T01:28:07.673Z,26.22
2023-05-10T01:29:07.718Z,26.22
2023-05-10T01:30:15.681Z,26.21
2023-05-10T01:31:08.800Z,26.20
2023-05-10T01:32:07.736Z,26.20
2023-05-10T01:33:07.703Z,26.20
2023-05-10T01:34:07.738Z,26.21
2023-05-10T01:35:07.721Z,26.20
2023-05-10T01:36:07.727Z,26.21
2023-05-10T01:37:07.688Z,26.19
2023-05-10T01:38:07.713Z,26.20
2023-05-10T01:39:07.680Z,26.20
2023-05-10T01:40:07.652Z,26.20
2023-05-10T01:41:07.700Z,26.20
2023-05-10T01:42:07.656Z,26.19
2023-05-10T01:43:07.660Z,26.19
2023-05-10T01:44:07.707Z,26.20
2023-05-10T01:45:07.791Z,26.19
2023-05-10T01:46:07.781Z,26.18
2023-05-10T01:47:07.827Z,26.18
2023-05-10T01:48:07.981Z,26.17
2023-05-10T01:49:07.910Z,26.17
2023-05-10T01:50:07.916Z,26.17
2023-05-10T01:51:08.004Z,26.17
2023-05-10T01:52:08.076Z,26.17
2023-05-10T01:53:08.133Z,26.16
2023-05-10T01:54:08.110Z,26.17
2023-05-10T01:55:08.194Z,26.16
2023-05-10T01:56:08.261Z,26.15
2023-05-10T01:57:08.308Z,26.17
2023-05-10T01:58:08.306Z,26.15
2023-05-10T01:59:08.544Z,26.15
2023-05-10T02:00:08.386Z,26.15
2023-05-10T02:01:08.464Z,26.15
2023-05-10T02:02:08.471Z,26.16
2023-05-10T02:03:08.675Z,26.16
2023-05-10T02:04:08.776Z,26.16
2023-05-10T02:05:08.622Z,26.15
2023-05-10T02:06:08.676Z,26.16
2023-05-10T02:07:08.711Z,26.15
2023-05-10T02:08:08.785Z,26.15
2023-05-10T02:09:08.855Z,26.15
2023-05-10T02:10:08.876Z,26.14
2023-05-10T02:11:08.924Z,26.15
2023-05-10T02:12:08.969Z,26.14
2023-05-10T02:13:09.169Z,26.14
2023-05-10T02:14:09.055Z,26.15
2023-05-10T02:15:09.083Z,26.14
2023-05-10T02:16:09.187Z,26.15
2023-05-10T02:17:09.186Z,26.14
2023-05-10T02:18:09.274Z,26.14
2023-05-10T02:19:09.305Z,26.14
2023-05-10T02:20:09.375Z,26.14
2023-05-10T02:21:09.401Z,26.13
2023-05-10T02:22:09.477Z,26.13
2023-05-10T02:23:09.501Z,26.12
2023-05-10T02:24:09.598Z,26.11
2023-05-10T02:25:09.745Z,26.11
2023-05-10T02:26:09.624Z,26.10
2023-05-10T02:27:09.704Z,26.11
2023-05-10T02:28:09.757Z,26.11
2023-05-10T02:29:09.823Z,26.10
2023-05-10T02:30:09.876Z,26.11
2023-05-10T02:31:09.878Z,26.12
2023-05-10T02:32:10.013Z,26.11
2023-05-10T02:33:09.980Z,26.10
2023-05-10T02:34:10.019Z,26.10
2023-05-10T02:35:10.064Z,26.10
2023-05-10T02:36:10.138Z,26.10
2023-05-10T02:37:10.249Z,26.10
2023-05-10T02:38:10.306Z,26.10
2023-05-10T02:39:10.292Z,26.10
2023-05-10T02:40:10.408Z,26.09
2023-05-10T02:41:10.413Z,26.09
2023-05-10T02:42:10.472Z,26.08
2023-05-10T02:43:10.504Z,26.08
2023-05-10T02:44:10.587Z,26.08
2023-05-10T02:45:10.651Z,26.09
2023-05-10T02:46:10.765Z,26.09
2023-05-10T02:47:10.734Z,26.09
2023-05-10T02:48:10.848Z,26.10
2023-05-10T02:49:10.816Z,26.09
2023-05-10T02:50:10.886Z,26.09
2023-05-10T02:51:10.940Z,26.08
2023-05-10T02:52:10.985Z,26.08
2023-05-10T02:53:11.059Z,26.08
2023-05-10T02:54:11.091Z,26.07
2023-05-10T02:55:11.167Z,26.07
2023-05-10T02:56:11.178Z,26.07
2023-05-10T02:57:11.285Z,26.07
2023-05-10T02:58:11.285Z,26.07
2023-05-10T02:59:11.324Z,26.08
2023-05-10T03:00:11.405Z,26.07
2023-05-10T03:01:11.497Z,26.07
2023-05-10T03:02:11.519Z,26.08
2023-05-10T03:03:11.586Z,26.07
2023-05-10T03:04:11.669Z,26.07
2023-05-10T03:05:11.669Z,26.07
2023-05-10T03:06:11.754Z,26.07
2023-05-10T03:07:11.825Z,26.06
2023-05-10T03:08:11.882Z,26.06
2023-05-10T03:09:11.906Z,26.06
2023-05-10T03:10:11.991Z,26.05
2023-05-10T03:11:12.041Z,26.05
2023-05-10T03:12:12.211Z,26.05
2023-05-10T03:13:12.215Z,26.05
2023-05-10T03:14:12.141Z,26.06
2023-05-10T03:15:12.225Z,26.05
2023-05-10T03:16:12.288Z,26.04
2023-05-10T03:17:12.339Z,26.04
2023-05-10T03:18:12.392Z,26.04
2023-05-10T03:19:12.461Z,26.05
2023-05-10T03:20:12.461Z,26.04
2023-05-10T03:21:12.525Z,26.03
2023-05-10T03:22:12.574Z,26.04
2023-05-10T03:23:12.621Z,26.04
2023-05-10T03:24:12.709Z,26.03
2023-05-10T03:25:12.740Z,26.04
2023-05-10T03:26:12.820Z,26.04
2023-05-10T03:27:12.852Z,26.04
2023-05-10T03:28:12.926Z,26.05
2023-05-10T03:29:12.943Z,26.04
2023-05-10T03:30:13.054Z,26.03
2023-05-10T03:31:13.085Z,26.02
2023-05-10T03:32:13.109Z,26.01
2023-05-10T03:33:13.170Z,26.02
2023-05-10T03:34:13.192Z,26.02
2023-05-10T03:35:13.285Z,26.01
2023-05-10T03:36:13.364Z,26.01
2023-05-10T03:37:13.462Z,26.02
2023-05-10T03:38:13.442Z,26.02
2023-05-10T03:39:13.523Z,26.01
2023-05-10T03:40:13.559Z,26.01
2023-05-10T03:41:13.641Z,26.00
2023-05-10T03:42:13.700Z,26.01
2023-05-10T03:43:13.753Z,26.01
2023-05-10T03:44:13.792Z,26.01
2023-05-10T03:45:13.866Z,26.00
2023-05-10T03:46:13.911Z,26.00
2023-05-10T03:47:13.931Z,26.00
2023-05-10T03:48:14.034Z,26.00
2023-05-10T03:49:14.060Z,25.98
2023-05-10T03:50:14.239Z,25.98
2023-05-10T03:51:14.217Z,25.97
2023-05-10T03:52:14.265Z,25.98
2023-05-10T03:53:14.327Z,25.97
2023-05-10T03:54:14.336Z,25.97
2023-05-10T03:55:14.414Z,25.97
2023-05-10T03:56:14.445Z,25.97
2023-05-10T03:57:14.526Z,25.97
2023-05-10T03:58:14.583Z,25.98
2023-05-10T03:59:14.629Z,25.97
2023-05-10T04:00:14.877Z,25.97
2023-05-10T04:01:14.800Z,25.98
2023-05-10T04:02:14.859Z,25.97
2023-05-10T04:03:14.965Z,25.97
2023-05-10T04:04:14.964Z,25.97
2023-05-10T04:05:14.959Z,25.97
2023-05-10T04:06:15.067Z,25.96
2023-05-10T04:07:15.075Z,25.95
2023-05-10T04:08:15.156Z,25.96
2023-05-10T04:09:15.188Z,25.95
2023-05-10T04:10:15.365Z,25.95
2023-05-10T04:11:15.282Z,25.94
2023-05-10T04:12:15.384Z,25.94
2023-05-10T04:13:15.392Z,25.93
2023-05-10T04:14:15.457Z,25.93
2023-05-10T04:15:15.530Z,25.91
2023-05-10T04:16:15.613Z,25.91
2023-05-10T04:17:15.717Z,25.90
2023-05-10T04:18:15.736Z,25.89
2023-05-10T04:19:15.808Z,25.89
2023-05-10T04:20:16.180Z,25.89
2023-05-10T04:21:15.846Z,25.88
2023-05-10T04:22:15.932Z,25.88
2023-05-10T04:23:15.979Z,25.87
2023-05-10T04:24:16.027Z,25.87
2023-05-10T04:25:16.125Z,25.87
2023-05-10T04:26:16.156Z,25.86
2023-05-10T04:27:16.206Z,25.85
2023-05-10T04:28:16.202Z,25.85
2023-05-10T04:29:16.309Z,25.85
2023-05-10T04:30:16.409Z,25.85
2023-05-10T04:31:16.315Z,25.85
2023-05-10T04:32:16.349Z,25.84
2023-05-10T04:33:16.447Z,25.84
2023-05-10T04:34:16.353Z,25.84
2023-05-10T04:35:16.417Z,25.85
2023-05-10T04:36:16.468Z,25.85
2023-05-10T04:37:16.469Z,25.85
2023-05-10T04:38:16.489Z,25.85
2023-05-10T04:39:16.491Z,25.86
2023-05-10T04:40:16.592Z,25.86
2023-05-10T04:41:16.446Z,25.86
2023-05-10T04:42:16.477Z,25.87
2023-05-10T04:43:16.478Z,25.87
2023-05-10T04:44:16.476Z,25.87
2023-05-10T04:45:16.492Z,25.88
2023-05-10T04:46:16.571Z,25.88
2023-05-10T04:47:16.500Z,25.89
2023-05-10T04:48:16.543Z,25.88
2023-05-10T04:49:16.575Z,25.88
2023-05-10T04:50:16.822Z,25.90
2023-05-10T04:51:16.670Z,25.89
2023-05-10T04:52:16.669Z,25.90
2023-05-10T04:53:16.760Z,25.90
2023-05-10T04:54:16.787Z,25.90
2023-05-10T04:55:16.838Z,25.90
2023-05-10T04:56:16.858Z,25.89
2023-05-10T04:57:16.916Z,25.89
2023-05-10T04:58:16.983Z,25.84
2023-05-10T04:59:16.966Z,25.79
2023-05-10T05:00:17.313Z,25.74
2023-05-10T05:01:17.079Z,25.74
2023-05-10T05:02:17.046Z,25.75
2023-05-10T05:03:17.113Z,25.73
2023-05-10T05:04:17.032Z,25.72
2023-05-10T05:05:17.004Z,25.68
2023-05-10T05:06:17.004Z,25.65
2023-05-10T05:07:17.010Z,25.62
2023-05-10T05:08:17.050Z,25.61
2023-05-10T05:09:17.058Z,25.60
2023-05-10T05:10:17.182Z,25.59
2023-05-10T05:11:17.067Z,25.55
2023-05-10T05:12:17.067Z,25.54
2023-05-10T05:13:17.094Z,25.53
2023-05-10T05:14:17.097Z,25.51
2023-05-10T05:15:17.100Z,25.51
2023-05-10T05:16:17.185Z,25.51
2023-05-10T05:17:17.130Z,25.51
2023-05-10T05:18:17.177Z,25.51
2023-05-10T05:19:17.158Z,25.50
2023-05-10T05:20:17.480Z,25.49
2023-05-10T05:21:17.194Z,25.49
2023-05-10T05:22:18.352Z,25.46
2023-05-10T05:23:17.202Z,25.45
2023-05-10T05:24:17.223Z,25.44
2023-05-10T05:25:17.276Z,25.41
2023-05-10T05:26:17.244Z,25.41
2023-05-10T05:27:17.263Z,25.41
2023-05-10T05:28:17.286Z,25.40
2023-05-10T05:29:17.365Z,25.40
2023-05-10T05:30:17.459Z,25.40
2023-05-10T05:31:17.382Z,25.40
2023-05-10T05:32:17.364Z,25.37
2023-05-10T05:33:17.391Z,25.37
2023-05-10T05:34:17.440Z,25.35
2023-05-10T05:35:17.647Z,25.37
2023-05-10T05:36:17.465Z,25.39
2023-05-10T05:37:17.464Z,25.43
2023-05-10T05:38:17.456Z,25.43
2023-05-10T05:39:17.515Z,25.46
2023-05-10T05:40:17.512Z,25.46
2023-05-10T05:41:17.536Z,25.47
2023-05-10T05:42:17.535Z,25.49
2023-05-10T05:43:17.559Z,25.51
2023-05-10T05:44:17.563Z,25.51
2023-05-10T05:45:17.865Z,25.50
2023-05-10T05:46:17.669Z,25.52
2023-05-10T05:47:17.635Z,25.57
2023-05-10T05:48:17.668Z,25.60
2023-05-10T05:49:17.639Z,25.63
2023-05-10T05:50:17.646Z,25.65
2023-05-10T05:51:17.693Z,25.68
2023-05-10T05:52:17.708Z,25.70
2023-05-10T05:53:17.665Z,25.73
2023-05-10T05:54:17.842Z,25.74
2023-05-10T05:55:18.039Z,25.77
2023-05-10T05:56:17.850Z,25.79
2023-05-10T05:57:17.896Z,25.82
2023-05-10T05:58:17.936Z,25.83
2023-05-10T05:59:17.909Z,25.86
2023-05-10T06:00:17.975Z,25.89
2023-05-10T06:01:18.216Z,25.92
2023-05-10T06:02:18.123Z,25.94
2023-05-10T06:03:18.270Z,25.97
2023-05-10T06:04:18.425Z,25.99
2023-05-10T06:05:18.355Z,26.01
2023-05-10T06:06:18.713Z,26.03
2023-05-10T06:07:18.375Z,26.04
2023-05-10T06:08:18.444Z,26.05
2023-05-10T06:09:18.696Z,26.06
2023-05-10T06:10:18.544Z,26.08
2023-05-10T06:11:18.673Z,26.10
2023-05-10T06:12:18.610Z,26.13
2023-05-10T06:13:18.707Z,26.15
2023-05-10T06:14:18.733Z,26.17
2023-05-10T06:15:18.967Z,26.19
2023-05-10T06:16:18.855Z,26.21
2023-05-10T06:17:18.844Z,26.23
2023-05-10T06:18:18.879Z,26.25
2023-05-10T06:19:18.868Z,26.27
2023-05-10T06:20:18.982Z,26.28
2023-05-10T06:21:18.977Z,26.30
2023-05-10T06:22:19.051Z,26.32
2023-05-10T06:23:19.045Z,26.33
2023-05-10T06:24:19.047Z,26.33
2023-05-10T06:25:19.281Z,26.35
2023-05-10T06:26:19.131Z,26.36
2023-05-10T06:27:19.173Z,26.37
2023-05-10T06:28:19.698Z,26.39
2023-05-10T06:29:19.193Z,26.40
2023-05-10T06:30:19.261Z,26.42
2023-05-10T06:31:19.276Z,26.43
2023-05-10T06:32:19.267Z,26.45
2023-05-10T06:33:19.316Z,26.46
2023-05-10T06:34:19.330Z,26.47
2023-05-10T06:35:19.506Z,26.47
2023-05-10T06:36:19.339Z,26.48
2023-05-10T06:37:19.342Z,26.47
2023-05-10T06:38:19.421Z,26.46
2023-05-10T06:39:21.252Z,26.42
2023-05-10T06:40:19.368Z,26.40
2023-05-10T06:41:19.421Z,26.35
2023-05-10T06:42:19.487Z,26.30
2023-05-10T06:43:19.638Z,26.28
2023-05-10T06:44:19.697Z,26.23
2023-05-10T06:45:19.966Z,26.19
2023-05-10T06:46:19.874Z,26.15
2023-05-10T06:47:19.682Z,26.11
2023-05-10T06:48:19.693Z,26.07
2023-05-10T06:49:20.198Z,26.05
2023-05-10T06:50:19.740Z,26.03
2023-05-10T06:51:19.748Z,26.02
2023-05-10T06:52:19.826Z,26.01
2023-05-10T06:53:19.699Z,26.02
2023-05-10T06:54:19.711Z,26.03
2023-05-10T06:55:19.815Z,26.05
2023-05-10T06:56:19.779Z,26.08
2023-05-10T06:57:31.153Z,26.11
2023-05-10T06:58:22.667Z,26.13
2023-05-10T06:59:19.917Z,26.17
2023-05-10T07:00:20.273Z,26.22
2023-05-10T07:01:20.039Z,26.25
2023-05-10T07:02:19.843Z,26.28
2023-05-10T07:03:20.801Z,26.32
2023-05-10T07:04:19.899Z,26.35
2023-05-10T07:05:20.086Z,26.39
2023-05-10T07:06:32.313Z,26.41
2023-05-10T07:07:20.771Z,26.43
2023-05-10T07:08:20.171Z,26.45
2023-05-10T07:09:20.181Z,26.47
2023-05-10T07:10:20.198Z,26.49
2023-05-10T07:11:19.801Z,26.49
2023-05-10T07:12:19.800Z,26.50
2023-05-10T07:13:19.890Z,26.52
2023-05-10T07:14:19.763Z,26.54
2023-05-10T07:15:20.224Z,26.56
2023-05-10T07:16:19.743Z,26.57
2023-05-10T07:17:19.789Z,26.59
2023-05-10T07:18:19.766Z,26.61
2023-05-10T07:19:19.778Z,26.62
2023-05-10T07:20:19.736Z,26.64
2023-05-10T07:21:19.757Z,26.65
2023-05-10T07:22:19.727Z,26.67
2023-05-10T07:23:19.710Z,26.66
2023-05-10T07:24:19.673Z,26.68
2023-05-10T07:25:19.713Z,26.69
2023-05-10T07:26:19.715Z,26.67
2023-05-10T07:27:19.739Z,26.67
2023-05-10T07:28:19.651Z,26.67
2023-05-10T07:29:19.688Z,26.68
2023-05-10T07:30:19.747Z,26.69
2023-05-10T07:31:19.686Z,26.65
2023-05-10T07:32:19.661Z,26.60
2023-05-10T07:33:19.815Z,26.54
2023-05-10T07:34:19.659Z,26.50
2023-05-10T07:35:19.706Z,26.45
2023-05-10T07:36:19.596Z,26.44
2023-05-10T07:37:19.612Z,26.38
2023-05-10T07:38:19.773Z,26.37
2023-05-10T07:39:26.486Z,26.37
2023-05-10T07:40:20.703Z,26.36
2023-05-10T07:41:19.737Z,26.38
2023-05-10T07:42:19.688Z,26.40
2023-05-10T07:43:19.653Z,26.42
2023-05-10T07:44:19.672Z,26.43
2023-05-10T07:45:19.669Z,26.45
2023-05-10T07:46:19.688Z,26.46
2023-05-10T07:47:19.627Z,26.49
2023-05-10T07:48:19.629Z,26.49
2023-05-10T07:49:19.641Z,26.51
2023-05-10T07:50:19.599Z,26.52
2023-05-10T07:51:19.647Z,26.51
2023-05-10T07:52:21.312Z,26.50
2023-05-10T07:53:19.668Z,26.48
2023-05-10T07:54:19.629Z,26.47
2023-05-10T07:55:19.639Z,26.47
2023-05-10T07:56:19.619Z,26.46
2023-05-10T07:57:19.636Z,26.45
2023-05-10T07:58:19.644Z,26.46
2023-05-10T07:59:19.600Z,26.47
2023-05-10T08:00:19.696Z,26.49
2023-05-10T08:01:19.620Z,26.50
2023-05-10T08:02:19.805Z,26.51
2023-05-10T08:03:19.774Z,26.53
2023-05-10T08:04:19.645Z,26.55
2023-05-10T08:05:19.765Z,26.57
2023-05-10T08:06:19.582Z,26.59
2023-05-10T08:07:19.558Z,26.62
2023-05-10T08:08:19.548Z,26.65
2023-05-10T08:09:19.526Z,26.67
2023-05-10T08:10:19.521Z,26.69
2023-05-10T08:11:19.546Z,26.69
2023-05-10T08:12:19.524Z,26.70
2023-05-10T08:13:19.910Z,26.70
2023-05-10T08:14:19.536Z,26.72
2023-05-10T08:15:19.659Z,26.73
2023-05-10T08:16:19.620Z,26.75
2023-05-10T08:17:20.271Z,26.75
2023-05-10T08:18:21.945Z,26.75
2023-05-10T08:19:19.482Z,26.77
2023-05-10T08:20:19.505Z,26.76
2023-05-10T08:21:19.564Z,26.76
2023-05-10T08:22:19.457Z,26.70
2023-05-10T08:23:19.524Z,26.67
2023-05-10T08:24:19.471Z,26.62
2023-05-10T08:25:19.854Z,26.59
2023-05-10T08:26:19.458Z,26.52
2023-05-10T08:27:19.465Z,26.49
2023-05-10T08:28:19.489Z,26.47
2023-05-10T08:29:19.389Z,26.41
2023-05-10T08:30:19.487Z,26.35
2023-05-10T08:31:19.528Z,26.31
2023-05-10T08:32:19.577Z,26.26
2023-05-10T08:33:19.540Z,26.22
2023-05-10T08:34:19.383Z,26.19
2023-05-10T08:35:19.370Z,26.15
2023-05-10T08:36:19.371Z,26.12
2023-05-10T08:37:19.344Z,26.10
2023-05-10T08:38:19.351Z,26.08
2023-05-10T08:39:29.805Z,26.05
2023-05-10T08:40:20.383Z,25.97
2023-05-10T08:41:19.311Z,25.97
2023-05-10T08:42:19.309Z,26.00
2023-05-10T08:43:19.347Z,26.03
2023-05-10T08:44:19.717Z,26.05
2023-05-10T08:45:19.549Z,26.11
2023-05-10T08:46:19.320Z,26.14
2023-05-10T08:47:19.486Z,26.17
2023-05-10T08:48:19.340Z,26.20
2023-05-10T08:49:19.389Z,26.25
2023-05-10T08:50:20.639Z,26.28
2023-05-10T08:51:19.774Z,26.32
2023-05-10T08:52:19.660Z,26.36
2023-05-10T08:53:19.505Z,26.40
2023-05-10T08:54:19.541Z,26.42
2023-05-10T08:55:19.586Z,26.46
2023-05-10T08:56:19.695Z,26.46
2023-05-10T08:57:19.709Z,26.45
2023-05-10T08:58:19.811Z,26.47
2023-05-10T08:59:19.621Z,26.50
2023-05-10T09:00:19.813Z,26.54
2023-05-10T09:01:19.646Z,26.56
2023-05-10T09:02:19.674Z,26.59
2023-05-10T09:03:19.786Z,26.62
2023-05-10T09:04:19.880Z,26.64
2023-05-10T09:05:19.974Z,26.66
2023-05-10T09:06:19.658Z,26.69
2023-05-10T09:07:19.654Z,26.70
2023-05-10T09:08:19.759Z,26.72
2023-05-10T09:09:19.685Z,26.75
2023-05-10T09:10:19.701Z,26.77
2023-05-10T09:11:19.689Z,26.79
2023-05-10T09:12:19.745Z,26.80
2023-05-10T09:13:19.750Z,26.82
2023-05-10T09:14:19.818Z,26.84
2023-05-10T09:15:19.992Z,26.86
2023-05-10T09:16:22.216Z,26.88
2023-05-10T09:17:19.967Z,26.89
2023-05-10T09:18:20.085Z,26.90
2023-05-10T09:19:19.879Z,26.91
2023-05-10T09:20:19.877Z,26.92
2023-05-10T09:21:19.933Z,26.94
2023-05-10T09:22:19.897Z,26.93
2023-05-10T09:23:19.952Z,26.94
2023-05-10T09:24:19.974Z,26.96
2023-05-10T09:25:19.973Z,26.98
2023-05-10T09:26:19.921Z,26.99
2023-05-10T09:27:19.839Z,27.01
2023-05-10T09:28:19.794Z,27.01
2023-05-10T09:29:19.802Z,27.02
2023-05-10T09:30:19.809Z,27.04
2023-05-10T09:31:19.869Z,27.07
2023-05-10T09:32:19.766Z,27.03
2023-05-10T09:33:19.841Z,27.05
2023-05-10T09:34:19.802Z,27.05
2023-05-10T09:35:19.788Z,27.06
2023-05-10T09:36:19.811Z,27.05
2023-05-10T09:37:19.754Z,27.07
2023-05-10T09:38:20.336Z,27.09
2023-05-10T09:39:19.738Z,27.11
2023-05-10T09:40:19.731Z,27.11
2023-05-10T09:41:19.745Z,27.11
2023-05-10T09:42:19.731Z,27.13
2023-05-10T09:43:19.723Z,27.16
2023-05-10T09:44:19.702Z,27.18
2023-05-10T09:45:19.710Z,27.19
2023-05-10T09:46:19.699Z,27.21
2023-05-10T09:47:19.690Z,27.22
2023-05-10T09:48:19.751Z,27.25
2023-05-10T09:49:19.769Z,27.26
2023-05-10T09:50:19.685Z,27.28
2023-05-10T09:51:19.660Z,27.28
2023-05-10T09:52:19.657Z,27.29
2023-05-10T09:53:19.677Z,27.29
2023-05-10T09:54:19.633Z,27.29
2023-05-10T09:55:19.622Z,27.30
2023-05-10T09:56:19.654Z,27.30
2023-05-10T09:57:20.056Z,27.29
2023-05-10T09:58:20.220Z,27.31
2023-05-10T09:59:19.612Z,27.30
2023-05-10T10:00:19.618Z,27.28
2023-05-10T10:01:19.737Z,27.25
2023-05-10T10:02:19.677Z,27.19
2023-05-10T10:03:19.728Z,27.16
2023-05-10T10:04:20.239Z,27.15
2023-05-10T10:05:19.859Z,27.13
2023-05-10T10:06:29.546Z,27.10
2023-05-10T10:07:20.908Z,27.04
2023-05-10T10:08:20.418Z,26.98
2023-05-10T10:09:20.002Z,26.93
2023-05-10T10:10:19.936Z,26.88
2023-05-10T10:11:19.829Z,26.83
2023-05-10T10:12:19.901Z,26.81
2023-05-10T10:13:19.850Z,26.79
2023-05-10T10:14:25.282Z,26.77
2023-05-10T10:15:19.999Z,26.74
2023-05-10T10:16:19.923Z,26.73
2023-05-10T10:17:19.895Z,26.69
2023-05-10T10:18:19.929Z,26.69
2023-05-10T10:19:19.956Z,26.67
2023-05-10T10:20:20.184Z,26.67
2023-05-10T10:21:20.033Z,26.65
2023-05-10T10:22:20.018Z,26.63
2023-05-10T10:23:20.122Z,26.61
2023-05-10T10:24:20.345Z,26.60
2023-05-10T10:25:20.248Z,26.59
2023-05-10T10:26:20.208Z,26.58
2023-05-10T10:27:20.306Z,26.52
2023-05-10T10:28:22.282Z,26.45
2023-05-10T10:29:20.443Z,26.39
2023-05-10T10:30:20.893Z,26.30
2023-05-10T10:31:20.537Z,26.24
2023-05-10T10:32:20.478Z,26.21
2023-05-10T10:33:28.362Z,26.23
2023-05-10T10:34:21.479Z,26.26
2023-05-10T10:35:20.785Z,26.30
2023-05-10T10:36:20.515Z,26.34
2023-05-10T10:37:20.507Z,26.39
2023-05-10T10:38:20.465Z,26.42
2023-05-10T10:39:20.432Z,26.46
2023-05-10T10:40:20.756Z,26.48
2023-05-10T10:41:20.494Z,26.50
2023-05-10T10:42:20.472Z,26.52
2023-05-10T10:43:20.465Z,26.55
2023-05-10T10:44:20.771Z,26.55
2023-05-10T10:45:20.484Z,26.57
2023-05-10T10:46:20.459Z,26.60
2023-05-10T10:47:20.453Z,26.62
2023-05-10T10:48:20.488Z,26.62
2023-05-10T10:49:20.581Z,26.64
2023-05-10T10:50:20.520Z,26.65
2023-05-10T10:51:20.522Z,26.68
2023-05-10T10:52:20.618Z,26.72
2023-05-10T10:53:20.566Z,26.73
2023-05-10T10:54:20.550Z,26.75
2023-05-10T10:55:20.708Z,26.77
2023-05-10T10:56:20.633Z,26.79
2023-05-10T10:57:20.573Z,26.79
2023-05-10T10:58:20.589Z,26.81
2023-05-10T10:59:20.595Z,26.83
2023-05-10T11:00:20.578Z,26.84
2023-05-10T11:01:20.737Z,26.87
2023-05-10T11:02:20.655Z,26.88
2023-05-10T11:03:20.704Z,26.89
2023-05-10T11:04:20.795Z,26.92
2023-05-10T11:05:20.784Z,26.93
2023-05-10T11:06:20.892Z,26.93
2023-05-10T11:07:21.009Z,26.95
2023-05-10T11:08:21.337Z,26.96
2023-05-10T11:09:21.011Z,26.96
2023-05-10T11:10:21.042Z,26.95
2023-05-10T11:11:21.315Z,26.97
2023-05-10T11:12:21.137Z,26.97
2023-05-10T11:13:21.254Z,26.98
2023-05-10T11:14:21.308Z,26.98
2023-05-10T11:15:21.325Z,26.97
2023-05-10T11:16:21.414Z,26.96
2023-05-10T11:17:21.776Z,26.95
2023-05-10T11:18:22.272Z,26.88
2023-05-10T11:19:21.404Z,26.77
2023-05-10T11:20:21.388Z,26.66
2023-05-10T11:21:21.438Z,26.61
2023-05-10T11:22:21.492Z,26.58
2023-05-10T11:23:21.542Z,26.54
2023-05-10T11:24:21.573Z,26.44
2023-05-10T11:25:21.569Z,26.39
2023-05-10T11:26:21.733Z,26.32
2023-05-10T11:27:21.601Z,26.27
2023-05-10T11:28:21.575Z,26.23
2023-05-10T11:29:21.722Z,26.15
2023-05-10T11:30:21.655Z,26.09
2023-05-10T11:31:21.826Z,25.98
2023-05-10T11:32:21.712Z,25.89
2023-05-10T11:33:21.832Z,25.81
2023-05-10T11:34:21.791Z,25.74
2023-05-10T11:35:21.915Z,25.65
2023-05-10T11:36:21.914Z,25.61
2023-05-10T11:37:21.952Z,25.58
2023-05-10T11:38:21.953Z,25.56
2023-05-10T11:39:22.030Z,25.51
2023-05-10T11:40:22.030Z,25.42
2023-05-10T11:41:22.043Z,25.35
2023-05-10T11:42:22.061Z,25.30
2023-05-10T11:43:22.116Z,25.26
2023-05-10T11:44:22.106Z,25.20
2023-05-10T11:45:22.107Z,25.10
2023-05-10T11:46:22.240Z,25.09
2023-05-10T11:47:22.191Z,25.09
2023-05-10T11:48:22.154Z,25.06
2023-05-10T11:49:22.249Z,25.05
2023-05-10T11:50:22.159Z,25.03
2023-05-10T11:51:22.154Z,25.01
2023-05-10T11:52:22.182Z,25.00
2023-05-10T11:53:23.266Z,24.99
2023-05-10T11:54:22.173Z,25.00
2023-05-10T11:55:22.172Z,25.00
2023-05-10T11:56:22.256Z,25.01
2023-05-10T11:57:22.208Z,25.00
2023-05-10T11:58:22.287Z,24.94
2023-05-10T11:59:22.374Z,24.92
2023-05-10T12:00:22.307Z,24.93
2023-05-10T12:01:22.301Z,24.93
2023-05-10T12:02:22.316Z,24.85
2023-05-10T12:03:22.410Z,24.74
2023-05-10T12:04:22.585Z,24.77
2023-05-10T12:05:22.429Z,24.84
2023-05-10T12:06:22.680Z,24.92
2023-05-10T12:07:22.465Z,25.01
2023-05-10T12:08:22.496Z,25.07
2023-05-10T12:09:35.444Z,25.14
2023-05-10T12:10:23.823Z,25.21
2023-05-10T12:11:22.459Z,25.27
2023-05-10T12:12:22.507Z,25.32
2023-05-10T12:13:22.482Z,25.37
2023-05-10T12:14:22.422Z,25.42
2023-05-10T12:15:22.476Z,25.41
2023-05-10T12:16:22.468Z,25.45
2023-05-10T12:17:22.444Z,25.48
2023-05-10T12:18:22.475Z,25.48
2023-05-10T12:19:22.483Z,25.53
2023-05-10T12:20:22.636Z,25.59
2023-05-10T12:21:22.631Z,25.63
2023-05-10T12:22:22.630Z,25.66
2023-05-10T12:23:22.693Z,25.67
2023-05-10T12:24:22.699Z,25.66
2023-05-10T12:25:22.808Z,25.67
2023-05-10T12:26:22.797Z,25.67
2023-05-10T12:27:22.863Z,25.69
2023-05-10T12:28:22.938Z,25.70
2023-05-10T12:29:22.925Z,25.69
2023-05-10T12:30:23.032Z,25.69
2023-05-10T12:31:23.100Z,25.72
2023-05-10T12:32:23.141Z,25.73
2023-05-10T12:33:23.113Z,25.73
2023-05-10T12:34:23.224Z,25.73
2023-05-10T12:35:23.224Z,25.74
2023-05-10T12:36:23.291Z,25.74
2023-05-10T12:37:23.453Z,25.74
2023-05-10T12:38:23.397Z,25.75
2023-05-10T12:39:23.413Z,25.76
2023-05-10T12:40:23.493Z,25.78
2023-05-10T12:41:23.850Z,25.79
2023-05-10T12:42:23.472Z,25.82
2023-05-10T12:43:23.529Z,25.86
2023-05-10T12:44:23.563Z,25.89
2023-05-10T12:45:23.553Z,25.93
2023-05-10T12:46:23.624Z,25.96
2023-05-10T12:47:23.510Z,26.00
2023-05-10T12:48:23.594Z,26.04
2023-05-10T12:49:24.124Z,26.09
2023-05-10T12:50:23.653Z,26.13
2023-05-10T12:51:23.698Z,26.17
2023-05-10T12:52:23.772Z,26.20